Terminal Aerodrome Forecast
Issued by NWS

Home | Current Version | Previous Version | Graphics & Text | Print | Product List | Glossary On
Versions: 1 2 3 4 5 6 7 8 9 10 11 12
653
FTUS43 KMPX 191125
TAFRWF
TAF
KRWF 191125Z 1912/2012 19008KT P6SM BKN250
     FM191800 25011KT P6SM BKN200
     FM192100 28009KT P6SM BKN200
     FM200400 29004KT P6SM BKN150=

USA.gov is the U.S. government's official web portal to all federal, state and local government web resources and services.